Santa Teresa, NM

3:33 AM MDT on October 01, 2014 (GMT -0600)
Santa Teresa | Change Station
CLOSE
Current Station
Airport
Location: Santa Teresa,
Elevation: 4111 ft
Nearby Weather Stations

Elev 4111 ft 31.88 °N, 106.70 °W | Updated 33 days ago

Clear
Clear
64 °F
Feels Like 64 °F
N
7
Wind Variable Wind from WSW
Gusts 9 mph

Today
High -- | Low -- °F
--% Chance of Precip.
Yesterday
High -- | Low -- °F
Precip. -- in
7:00 AM 6:51 PM
Waxing Crescent, 45% visible
Pressure 30.04 in
Visibility 10.0 miles
Clouds Scattered Clouds 7000 ft
Scattered Clouds 25000 ft
Dew Point 43 °F
Humidity 43%
Rainfall 0.00 in
Snow Depth 2 in , 1 in , 0 in
UV 8 out of 12
Pollen 7.90 out of 12
Air Quality Not available.
Flu Activity Not available.
METAR K5T6 282055Z 26005KT 10SM SCT070 SCT250 33/09 A3004 RMK UNOFFICIAL

More Conditions Fewer Conditions

Pressure 30.04 in
Visibility 10.0 miles
Clouds Scattered Clouds 7000 ft
Scattered Clouds 25000 ft
Dew Point 43 °F
Humidity 43%
Rainfall 0.00 in
Snow Depth 2 in , 1 in , 0 in
UV 8 out of 12
Pollen 7.90 out of 12
Air Quality Not available.
Flu Activity Not available.
METAR K5T6 282055Z 26005KT 10SM SCT070 SCT250 33/09 A3004 RMK UNOFFICIAL

More Conditions Fewer Conditions

10-Day Weather Forecast

Almanac

Astronomy

Oct. 01, 2014 Rise Set
Actual Time 7:00 AM MDT 6:51 PM MDT
Civil Twilight 6:36 AM MDT 7:15 PM MDT
Nautical Twilight 6:07 AM MDT 7:43 PM MDT
Astronomical Twilight 5:39 AM MDT 8:12 PM MDT
Moon 1:48 PM MDT No Moon Set
Length of Visible Light 12h 39m
Length of Day
11h 50m
Tomorrow will be 1m 56s shorter.
Waxing Crescent, 45% of the Moon is Illuminated
Today
Waxing Crescent
Oct 1
First Quarter
Oct 8
Full
Oct 15
Last Quarter
Oct 23
New

Today's Extremes

State Highs State Lows

Community

WunderPhotos

Upload Photos

1,757,903 photos uploaded!

WunderBlogs® & News

Nearby

Snow Depth

Station Depth Elevation
Santa Fe 0 in 11445 ft
Red River Pass #2 1 in 9850 ft
Sierra Blanca 0 in 10280 ft
Wesner Springs 3 in 11120 ft
Quemazon 2 in 9500 ft

Earthquake Activity

City Distance Mag. Time & Date
No recent earthquake activity has been reported nearby.
Minimum magnitude displayed is 2.5.

Coastal Water Temperatures

Place Temperature
No Stations Reporting

Nearby Weather Stations